Terminal Aerodrome Forecast
Issued by NWS Sioux Falls, SD

Home | Current Version | Previous Version | Graphics & Text | Print | Product List | Glossary On
Versions: 1 2 3 4 5 6 7 8 9 10 11 12 13 14 15 16 17 18 19 20 21 22 23 24 25 26 27 28 29 30 31 32 33 34
000
FTUS43 KFSD 062325
TAFSUX
TAF
KSUX 062325Z 0700/0724 36017G24KT 2SM FU BKN035
     FM070200 35011KT 3SM FU SKC
     FM070500 36005KT 4SM FU SKC
      TEMPO 0707/0711 2SM FU
     FM071400 02007KT 5SM FU SKC
     FM071700 04009KT P6SM FEW200=

USA.gov is the U.S. government's official web portal to all federal, state and local government web resources and services.